Time;durP1;ratioP1;P1;durP2;ratioP2;P2;SDS_P1;SDS_P2;PMS_P1;PMS_P2;Temp;Humidity;BMP_temperature;BMP_pressure;BME280_temperature;BME280_humidity;BME280_pressure;Samples;Min_cycle;Max_cycle;Signal;HPM_P1;HPM_P2
2022/01/01 00:00:54;;;;;;;63.63;46.08;;;12.40;99.90;;;;;;5009213;28;20655;-88
2022/01/01 00:03:20;;;;;;;46.63;33.20;;;12.40;99.90;;;;;;4993751;28;20141;-88
2022/01/01 00:05:45;;;;;;;42.83;29.60;;;12.40;99.90;;;;;;4998190;28;20042;-88
2022/01/01 00:08:12;;;;;;;47.00;28.05;;;12.40;99.90;;;;;;4995205;28;20042;-89
2022/01/01 00:10:38;;;;;;;45.65;27.27;;;12.30;99.90;;;;;;5004254;28;20046;-87
2022/01/01 00:13:03;;;;;;;45.15;26.77;;;12.30;99.90;;;;;;5007525;28;20065;-88
2022/01/01 00:15:29;;;;;;;47.05;28.70;;;12.30;99.90;;;;;;4993583;28;20069;-88
2022/01/01 00:17:57;;;;;;;52.42;29.90;;;12.30;99.90;;;;;;4989952;28;20192;-88
2022/01/01 00:20:23;;;;;;;48.65;29.73;;;12.30;99.90;;;;;;5008146;28;20053;-87
2022/01/01 00:22:48;;;;;;;57.15;35.53;;;12.20;99.90;;;;;;5007775;28;20041;-88
2022/01/01 00:25:14;;;;;;;61.63;38.60;;;12.30;99.90;;;;;;5005188;28;20040;-89
2022/01/01 00:27:40;;;;;;;70.13;42.78;;;12.20;99.90;;;;;;5002536;28;20049;-88
2022/01/01 00:30:07;;;;;;;72.30;47.90;;;12.20;99.90;;;;;;5009204;28;20081;-88
2022/01/01 00:32:34;;;;;;;79.30;48.78;;;12.20;99.90;;;;;;4994549;28;20038;-89
2022/01/01 00:35:00;;;;;;;70.80;44.60;;;12.20;99.90;;;;;;4993196;28;20058;-88
2022/01/01 00:37:26;;;;;;;68.50;45.38;;;12.20;99.90;;;;;;4994107;28;20566;-88
2022/01/01 00:39:51;;;;;;;64.47;40.53;;;12.20;99.90;;;;;;5009009;28;20533;-89
2022/01/01 00:42:17;;;;;;;58.38;37.47;;;12.20;99.90;;;;;;5010353;28;20124;-88
2022/01/01 00:44:42;;;;;;;54.75;37.33;;;12.20;99.90;;;;;;5005491;28;20030;-88
2022/01/01 00:47:08;;;;;;;59.15;39.63;;;12.20;99.90;;;;;;5014970;28;20049;-85
2022/01/01 00:49:34;;;;;;;64.20;41.03;;;12.20;99.90;;;;;;5014835;28;20062;-88
2022/01/01 00:51:59;;;;;;;60.10;41.28;;;12.20;99.90;;;;;;5014122;28;20038;-88
2022/01/01 00:54:25;;;;;;;56.88;40.97;;;12.10;99.90;;;;;;4996589;28;20506;-88
2022/01/01 00:56:50;;;;;;;66.13;43.47;;;12.10;99.90;;;;;;5009754;28;20480;-88
2022/01/01 00:59:16;;;;;;;63.78;44.28;;;12.10;99.90;;;;;;4988171;28;20029;-88
2022/01/01 01:01:42;;;;;;;65.50;42.50;;;12.10;99.90;;;;;;5018447;28;20159;-87
2022/01/01 01:04:07;;;;;;;64.47;44.90;;;12.10;99.90;;;;;;5009249;28;20499;-87
2022/01/01 01:06:33;;;;;;;61.78;42.83;;;12.10;99.90;;;;;;5011251;28;20495;-88
2022/01/01 01:09:00;;;;;;;64.25;45.17;;;12.10;99.90;;;;;;4991928;28;20076;-88
2022/01/01 01:11:27;;;;;;;57.58;41.25;;;12.00;99.90;;;;;;5009475;28;20100;-89
2022/01/01 01:13:58;;;;;;;61.00;42.67;;;12.00;99.90;;;;;;4990066;28;20049;-88
2022/01/01 01:16:25;;;;;;;63.78;42.72;;;12.00;99.90;;;;;;4992257;28;20041;-89
2022/01/01 01:18:54;;;;;;;61.08;41.95;;;12.00;99.90;;;;;;5007326;28;20048;-88
2022/01/01 01:21:24;;;;;;;67.43;46.33;;;12.00;99.90;;;;;;4991189;28;20092;-88
2022/01/01 01:23:49;;;;;;;62.97;45.35;;;12.00;99.90;;;;;;4989651;28;20038;-88
2022/01/01 01:26:16;;;;;;;70.88;49.13;;;12.00;99.90;;;;;;5008821;28;20030;-88
2022/01/01 01:28:48;;;;;;;70.28;49.45;;;12.00;99.90;;;;;;5005150;28;20052;-88
2022/01/01 01:31:15;;;;;;;72.00;50.23;;;12.00;99.90;;;;;;4986481;28;20026;-88
2022/01/01 01:33:42;;;;;;;66.55;50.15;;;12.00;99.90;;;;;;5009291;28;20053;-88
2022/01/01 01:36:08;;;;;;;69.93;49.33;;;11.90;99.90;;;;;;5007343;28;20525;-88
2022/01/01 01:38:36;;;;;;;74.28;50.05;;;11.90;99.90;;;;;;4988878;28;20117;-88
2022/01/01 01:41:04;;;;;;;72.70;48.58;;;11.90;99.90;;;;;;5004307;28;20507;-89
2022/01/01 01:43:30;;;;;;;72.00;49.38;;;11.90;99.90;;;;;;5000791;28;20517;-88
2022/01/01 01:45:57;;;;;;;74.45;51.80;;;11.90;99.90;;;;;;4995740;28;20034;-88
2022/01/01 01:48:23;;;;;;;70.03;49.35;;;11.90;99.90;;;;;;4979585;28;20081;-88
2022/01/01 01:50:49;;;;;;;72.35;48.53;;;11.90;99.90;;;;;;5010622;28;20030;-88
2022/01/01 01:53:14;;;;;;;70.30;48.67;;;12.00;99.90;;;;;;4986652;28;20037;-88
2022/01/01 01:55:40;;;;;;;72.20;47.60;;;11.90;99.90;;;;;;5008203;28;20532;-88
2022/01/01 01:58:05;;;;;;;71.88;47.83;;;11.90;99.90;;;;;;4979488;28;20045;-88
2022/01/01 02:01:01;;;;;;;74.07;48.72;;;12.00;99.90;;;;;;4993136;28;20407;-88
2022/01/01 02:03:25;;;;;;;74.20;48.97;;;12.00;99.90;;;;;;4998033;28;20462;-89
2022/01/01 02:05:53;;;;;;;79.47;52.15;;;12.00;99.90;;;;;;5006610;28;20104;-88
2022/01/01 02:08:19;;;;;;;80.65;53.30;;;12.00;99.90;;;;;;5005158;28;20400;-88
2022/01/01 02:10:48;;;;;;;77.97;51.90;;;12.00;99.90;;;;;;4991427;28;20043;-88
2022/01/01 02:13:23;;;;;;;83.00;53.05;;;11.90;99.90;;;;;;4998336;28;20030;-89
2022/01/01 02:18:17;;;;;;;76.75;49.33;;;11.80;99.90;;;;;;5004617;28;20042;-88
2022/01/01 02:20:49;;;;;;;73.85;48.90;;;11.80;99.90;;;;;;4979373;28;20041;-88
2022/01/01 02:23:16;;;;;;;75.13;46.78;;;11.80;99.90;;;;;;4981996;28;20042;-88
2022/01/01 02:25:43;;;;;;;74.43;46.72;;;11.80;99.90;;;;;;4990142;28;20125;-88
2022/01/01 02:28:11;;;;;;;78.43;48.60;;;11.80;99.90;;;;;;4998601;28;20562;-88
2022/01/01 02:30:37;;;;;;;71.32;46.13;;;11.80;99.90;;;;;;4981747;28;20041;-88
2022/01/01 02:33:02;;;;;;;70.10;46.28;;;11.80;99.90;;;;;;5009567;28;20430;-89
2022/01/01 02:35:28;;;;;;;72.43;46.97;;;11.80;99.90;;;;;;4979026;28;20061;-88
2022/01/01 02:37:54;;;;;;;71.82;46.65;;;11.80;99.90;;;;;;4988609;28;20042;-88
2022/01/01 02:40:19;;;;;;;75.82;46.13;;;11.80;99.90;;;;;;4985629;28;20036;-88
2022/01/01 02:42:45;;;;;;;76.70;49.08;;;11.80;99.90;;;;;;5009709;28;20503;-88
2022/01/01 02:45:13;;;;;;;76.85;49.08;;;11.80;99.90;;;;;;4992927;28;20450;-88
2022/01/01 02:47:40;;;;;;;69.57;46.97;;;11.80;99.90;;;;;;5002294;28;20393;-88
2022/01/01 02:50:07;;;;;;;76.32;49.75;;;11.80;99.90;;;;;;4992959;28;20038;-88
2022/01/01 02:52:33;;;;;;;76.80;51.00;;;11.80;99.90;;;;;;5001409;28;20541;-88
2022/01/01 02:54:58;;;;;;;81.28;50.55;;;11.80;99.90;;;;;;5009068;28;20121;-88
2022/01/01 02:57:24;;;;;;;80.68;51.55;;;11.80;99.90;;;;;;4988234;28;20030;-88
2022/01/01 02:59:50;;;;;;;76.65;50.63;;;11.80;99.90;;;;;;4983429;28;20112;-88
2022/01/01 03:02:16;;;;;;;75.97;50.13;;;11.90;99.90;;;;;;4990506;28;20128;-88
2022/01/01 03:04:42;;;;;;;77.75;51.22;;;11.90;99.90;;;;;;4979347;28;20045;-88
2022/01/01 03:07:07;;;;;;;76.45;51.53;;;11.90;99.90;;;;;;4991323;28;20052;-88
2022/01/01 03:09:36;;;;;;;84.03;55.35;;;11.90;99.90;;;;;;4992348;28;20084;-89
2022/01/01 03:12:05;;;;;;;76.97;52.22;;;11.90;99.90;;;;;;4993872;28;20051;-88
2022/01/01 03:14:31;;;;;;;83.15;53.97;;;11.90;99.90;;;;;;5002076;28;20042;-88
2022/01/01 03:16:57;;;;;;;80.53;51.55;;;11.90;99.90;;;;;;4985260;28;20401;-88
2022/01/01 03:19:23;;;;;;;79.55;55.03;;;11.90;99.90;;;;;;4987753;28;20082;-88
2022/01/01 03:21:49;;;;;;;77.18;53.13;;;11.90;99.90;;;;;;4988828;28;20077;-88
2022/01/01 03:24:14;;;;;;;86.15;54.30;;;11.90;99.90;;;;;;5011655;28;20125;-88
2022/01/01 03:26:40;;;;;;;78.38;53.17;;;11.90;99.90;;;;;;5001842;28;20041;-88
2022/01/01 03:29:06;;;;;;;83.55;56.28;;;11.90;99.90;;;;;;5001953;28;20045;-89
2022/01/01 03:31:32;;;;;;;87.43;56.33;;;11.90;99.90;;;;;;4985036;28;20492;-88
2022/01/01 03:33:58;;;;;;;86.72;56.78;;;11.90;99.90;;;;;;4991223;28;20125;-89
2022/01/01 03:36:27;;;;;;;83.82;54.75;;;11.90;99.90;;;;;;4986579;28;20195;-88
2022/01/01 03:38:54;;;;;;;87.20;55.83;;;11.90;99.90;;;;;;5006495;28;20034;-88
2022/01/01 03:41:19;;;;;;;85.80;56.13;;;11.90;99.90;;;;;;5012089;28;20048;-88
2022/01/01 03:43:45;;;;;;;81.80;56.53;;;11.90;99.90;;;;;;5000952;28;20039;-88
2022/01/01 03:46:11;;;;;;;88.50;56.90;;;11.90;99.90;;;;;;5008233;28;20034;-88
2022/01/01 03:48:37;;;;;;;83.65;57.58;;;11.90;99.90;;;;;;4979891;28;20037;-89
2022/01/01 03:51:03;;;;;;;79.35;55.67;;;11.90;99.90;;;;;;4998817;28;20030;-89
2022/01/01 03:53:28;;;;;;;83.80;55.95;;;11.90;99.90;;;;;;4992943;28;20484;-88
2022/01/01 03:55:54;;;;;;;80.40;56.80;;;11.90;99.90;;;;;;4981343;28;20129;-88
2022/01/01 03:58:20;;;;;;;85.50;55.90;;;11.90;99.90;;;;;;5012730;28;20041;-88
2022/01/01 04:00:46;;;;;;;76.22;54.03;;;11.90;99.90;;;;;;4987306;28;20041;-88
2022/01/01 04:03:14;;;;;;;81.50;56.30;;;11.90;99.90;;;;;;5001088;28;20034;-88
2022/01/01 04:05:40;;;;;;;84.57;55.13;;;11.90;99.90;;;;;;4978278;28;20051;-88
2022/01/01 04:08:07;;;;;;;80.40;53.55;;;11.90;99.90;;;;;;5000918;28;20034;-89
2022/01/01 04:10:34;;;;;;;83.38;53.60;;;11.90;99.90;;;;;;4976668;28;20038;-88
2022/01/01 04:13:02;;;;;;;78.90;53.05;;;11.90;99.90;;;;;;4993668;28;20041;-88
2022/01/01 04:15:28;;;;;;;74.20;52.30;;;11.90;99.90;;;;;;4991957;28;20034;-89
2022/01/01 04:18:00;;;;;;;78.72;53.33;;;11.90;99.90;;;;;;5011579;28;20046;-88
2022/01/01 04:20:26;;;;;;;73.32;53.05;;;11.90;99.90;;;;;;4995458;28;20471;-89
2022/01/01 04:22:52;;;;;;;78.50;52.97;;;11.90;99.90;;;;;;4980174;28;20114;-88
2022/01/01 04:25:20;;;;;;;78.22;54.08;;;11.90;99.90;;;;;;4997845;28;20041;-89
2022/01/01 04:27:46;;;;;;;77.05;51.92;;;11.90;99.90;;;;;;4998428;28;20970;-89
2022/01/01 04:30:11;;;;;;;80.97;52.92;;;11.90;99.90;;;;;;5005588;28;20121;-89
2022/01/01 04:32:37;;;;;;;83.45;53.65;;;11.90;99.90;;;;;;5003598;28;20467;-89
2022/01/01 04:35:03;;;;;;;75.10;52.53;;;11.90;99.90;;;;;;5011330;28;20084;-89
2022/01/01 04:37:29;;;;;;;80.30;51.45;;;11.90;99.90;;;;;;5011264;28;20038;-89
2022/01/01 04:39:59;;;;;;;80.32;52.40;;;11.90;99.90;;;;;;4986145;28;20569;-89
2022/01/01 04:42:29;;;;;;;69.25;52.28;;;11.90;99.90;;;;;;4998035;28;20030;-88
2022/01/01 04:44:55;;;;;;;83.05;53.55;;;11.90;99.90;;;;;;4976997;28;20484;-89
2022/01/01 04:47:20;;;;;;;74.38;52.80;;;11.90;99.90;;;;;;4987395;28;20029;-88
2022/01/01 04:49:46;;;;;;;76.32;53.47;;;11.90;99.90;;;;;;5011253;28;20569;-88
2022/01/01 04:52:12;;;;;;;73.45;51.13;;;11.90;99.90;;;;;;4979689;28;20074;-89
2022/01/01 04:54:41;;;;;;;79.18;54.72;;;11.90;99.90;;;;;;4999786;28;20039;-89
2022/01/01 04:57:07;;;;;;;81.82;53.67;;;11.90;99.90;;;;;;4991595;28;20053;-88
2022/01/01 04:59:34;;;;;;;80.93;55.15;;;11.90;99.90;;;;;;4992289;28;20038;-89
2022/01/01 05:02:00;;;;;;;80.97;53.90;;;11.90;99.90;;;;;;5002706;28;20116;-88
2022/01/01 05:04:25;;;;;;;81.63;52.67;;;11.90;99.90;;;;;;4981862;28;20484;-88
2022/01/01 05:06:52;;;;;;;81.22;54.13;;;11.90;99.90;;;;;;5001904;28;20480;-89
2022/01/01 05:09:21;;;;;;;84.45;53.95;;;11.90;99.90;;;;;;5001331;28;20048;-89
2022/01/01 05:11:47;;;;;;;81.93;54.05;;;11.90;99.90;;;;;;5002717;28;20407;-89
2022/01/01 05:14:16;;;;;;;76.55;54.60;;;11.90;99.90;;;;;;5008767;28;20046;-89
2022/01/01 05:16:42;;;;;;;78.85;52.75;;;11.90;99.90;;;;;;4981039;28;20057;-88
2022/01/01 05:19:08;;;;;;;72.55;50.25;;;11.90;99.90;;;;;;4993618;28;20389;-87
2022/01/01 05:21:36;;;;;;;78.47;51.55;;;11.90;99.90;;;;;;4992471;28;20049;-87
2022/01/01 05:24:04;;;;;;;76.35;52.55;;;11.90;99.90;;;;;;4998622;28;20053;-88
2022/01/01 05:26:31;;;;;;;83.63;51.55;;;11.90;99.90;;;;;;4978316;28;20046;-89
2022/01/01 05:28:56;;;;;;;77.80;49.20;;;11.90;99.90;;;;;;4980000;28;20035;-89
2022/01/01 05:31:22;;;;;;;71.13;48.58;;;11.90;99.90;;;;;;5008411;28;20037;-89
2022/01/01 05:33:52;;;;;;;68.88;46.28;;;11.90;99.90;;;;;;4990767;28;20481;-89
2022/01/01 05:36:18;;;;;;;70.05;46.97;;;11.90;99.90;;;;;;5000414;28;20560;-89
2022/01/01 05:38:46;;;;;;;71.95;47.92;;;11.90;99.90;;;;;;5002014;28;20523;-89
2022/01/01 05:41:12;;;;;;;70.18;46.30;;;11.90;99.90;;;;;;4985848;28;20084;-89
2022/01/01 05:43:38;;;;;;;67.72;42.05;;;12.00;99.90;;;;;;5007173;28;20046;-89
2022/01/01 05:46:03;;;;;;;62.78;40.78;;;11.90;99.90;;;;;;4999174;28;20389;-89
2022/01/01 05:48:29;;;;;;;66.60;41.45;;;12.00;99.90;;;;;;4996889;28;20061;-89
2022/01/01 05:50:55;;;;;;;62.97;39.67;;;11.90;99.90;;;;;;5004463;28;20065;-89
2022/01/01 05:53:20;;;;;;;67.50;41.40;;;12.00;99.90;;;;;;4985322;28;20129;-89
2022/01/01 05:55:47;;;;;;;62.03;39.75;;;11.90;99.90;;;;;;4993257;28;20038;-89
2022/01/01 05:58:13;;;;;;;58.70;37.88;;;11.90;99.90;;;;;;4997920;28;20042;-89
2022/01/01 06:00:39;;;;;;;61.53;36.80;;;12.00;99.90;;;;;;4991628;28;20034;-89
2022/01/01 06:03:04;;;;;;;61.90;37.42;;;12.00;99.90;;;;;;4979550;28;20045;-89
2022/01/01 06:05:31;;;;;;;56.03;36.88;;;12.00;99.90;;;;;;5009372;28;20038;-89
2022/01/01 06:07:58;;;;;;;52.83;33.33;;;12.00;99.90;;;;;;4985493;28;20115;-89
2022/01/01 06:10:24;;;;;;;55.88;31.77;;;12.00;99.90;;;;;;4993924;28;20487;-89
2022/01/01 06:12:50;;;;;;;49.10;28.50;;;12.00;99.90;;;;;;4990765;28;20069;-89
2022/01/01 06:15:16;;;;;;;48.75;27.65;;;12.00;99.90;;;;;;4980257;28;20488;-89
2022/01/01 06:17:42;;;;;;;46.65;26.33;;;12.00;99.90;;;;;;4991523;28;20037;-89
2022/01/01 06:20:08;;;;;;;45.58;24.45;;;12.00;99.90;;;;;;5002330;28;20107;-89
2022/01/01 06:22:34;;;;;;;42.13;23.70;;;12.00;99.90;;;;;;4984621;28;20053;-89
2022/01/01 06:24:59;;;;;;;40.55;23.60;;;12.00;99.90;;;;;;4974582;28;20038;-89
2022/01/01 06:27:25;;;;;;;44.00;24.05;;;12.00;99.90;;;;;;5006684;28;20108;-89
2022/01/01 06:29:50;;;;;;;41.33;23.63;;;12.00;99.90;;;;;;5002008;28;20126;-89
2022/01/01 06:32:16;;;;;;;44.60;23.17;;;12.00;99.90;;;;;;4996383;28;20049;-89
2022/01/01 06:34:42;;;;;;;44.58;23.83;;;12.00;99.90;;;;;;5008471;28;20041;-89
2022/01/01 06:37:08;;;;;;;43.80;23.67;;;12.00;99.90;;;;;;4998607;28;20042;-89
2022/01/01 06:39:33;;;;;;;41.95;22.95;;;12.00;99.90;;;;;;4998670;28;20046;-88
2022/01/01 06:41:59;;;;;;;40.45;22.40;;;12.00;99.90;;;;;;5006428;28;20077;-89
2022/01/01 06:44:25;;;;;;;45.15;24.05;;;12.00;99.90;;;;;;4990226;28;20046;-89
2022/01/01 06:46:51;;;;;;;38.28;23.67;;;12.00;99.90;;;;;;5000577;28;20088;-89
2022/01/01 06:49:17;;;;;;;42.88;23.88;;;12.00;99.90;;;;;;4994295;28;20029;-89
2022/01/01 06:51:42;;;;;;;43.67;23.70;;;12.00;99.90;;;;;;5009876;28;20048;-89
2022/01/01 06:54:08;;;;;;;42.72;24.00;;;12.10;99.90;;;;;;4976476;28;20132;-90
2022/01/01 06:56:34;;;;;;;42.35;21.85;;;12.00;99.90;;;;;;4990108;28;20041;-89
2022/01/01 06:58:59;;;;;;;46.38;24.38;;;12.00;99.90;;;;;;4973871;28;20043;-89
2022/01/01 07:01:25;;;;;;;41.80;23.95;;;12.00;99.90;;;;;;5002650;28;20034;-89
2022/01/01 07:03:50;;;;;;;47.13;25.88;;;12.00;99.90;;;;;;5009195;28;20034;-89
2022/01/01 07:06:16;;;;;;;50.40;26.20;;;12.00;99.90;;;;;;4988945;28;20046;-89
2022/01/01 07:08:41;;;;;;;48.40;26.35;;;12.00;99.90;;;;;;4993042;28;20061;-89
2022/01/01 07:11:07;;;;;;;51.80;27.60;;;12.00;99.90;;;;;;5005994;28;20038;-89
2022/01/01 07:13:33;;;;;;;50.33;26.90;;;12.10;99.90;;;;;;5002467;28;20038;-89
2022/01/01 07:15:58;;;;;;;44.45;26.63;;;12.00;99.90;;;;;;4993038;28;20038;-88
2022/01/01 07:18:24;;;;;;;42.97;27.65;;;12.10;99.90;;;;;;4981203;28;20147;-89
2022/01/01 07:20:49;;;;;;;52.15;27.63;;;12.10;99.90;;;;;;4988593;28;20042;-89
2022/01/01 07:23:15;;;;;;;49.15;26.95;;;12.10;99.90;;;;;;5007281;28;20430;-89
2022/01/01 07:25:41;;;;;;;48.63;28.55;;;12.10;99.90;;;;;;4981215;28;20451;-89
2022/01/01 07:28:07;;;;;;;44.55;26.63;;;12.10;99.90;;;;;;4989874;28;20038;-89
2022/01/01 07:30:33;;;;;;;50.80;27.83;;;12.10;99.90;;;;;;4997935;28;20046;-89
2022/01/01 07:32:58;;;;;;;49.70;27.88;;;12.10;99.90;;;;;;4990367;28;20034;-89
2022/01/01 07:35:24;;;;;;;52.67;28.00;;;12.10;99.90;;;;;;4998078;28;20575;-90
2022/01/01 07:37:52;;;;;;;49.60;28.35;;;12.10;99.90;;;;;;5003843;28;20037;-89
2022/01/01 07:40:19;;;;;;;45.60;27.75;;;12.10;99.90;;;;;;4992452;28;20038;-90
2022/01/01 07:42:46;;;;;;;49.28;27.77;;;12.10;99.90;;;;;;5022022;28;20022;-88
2022/01/01 07:45:14;;;;;;;49.72;27.27;;;12.10;99.90;;;;;;5014392;28;20042;-89
2022/01/01 07:47:39;;;;;;;50.20;30.55;;;12.10;99.90;;;;;;4987067;28;20042;-89
2022/01/01 07:50:07;;;;;;;56.47;29.63;;;12.20;99.90;;;;;;5010865;28;20045;-89
2022/01/01 07:52:32;;;;;;;45.25;28.98;;;12.20;99.90;;;;;;4992677;28;20046;-89
2022/01/01 07:54:58;;;;;;;46.08;28.58;;;12.10;99.90;;;;;;4976284;28;20518;-89
2022/01/01 07:57:24;;;;;;;52.30;30.83;;;12.20;99.90;;;;;;5002602;28;20065;-89
2022/01/01 07:59:49;;;;;;;50.58;30.50;;;12.20;99.90;;;;;;4993977;28;20054;-89
2022/01/01 08:02:15;;;;;;;49.65;30.73;;;12.20;99.90;;;;;;4984480;28;20048;-89
2022/01/01 08:04:40;;;;;;;54.80;31.88;;;12.20;99.90;;;;;;4995623;28;20038;-89
2022/01/01 08:07:06;;;;;;;53.53;32.65;;;12.20;99.90;;;;;;5011051;28;20088;-88
2022/01/01 08:09:32;;;;;;;53.45;33.00;;;12.20;99.90;;;;;;5014729;28;20498;-88
2022/01/01 08:11:58;;;;;;;58.83;33.25;;;12.20;99.90;;;;;;4995539;28;20041;-88
2022/01/01 08:14:23;;;;;;;55.80;32.58;;;12.20;99.90;;;;;;4993172;28;20048;-89
2022/01/01 08:17:03;;;;;;;62.17;34.45;;;12.30;99.90;;;;;;5008498;28;20512;-88
2022/01/01 08:19:29;;;;;;;51.85;32.83;;;12.30;99.90;;;;;;5008518;28;20438;-89
2022/01/01 08:21:56;;;;;;;55.08;34.63;;;12.30;99.90;;;;;;4985741;28;20038;-88
2022/01/01 08:24:22;;;;;;;54.60;33.10;;;12.40;99.90;;;;;;5007853;28;20046;-88
2022/01/01 08:26:48;;;;;;;47.90;31.98;;;12.40;99.90;;;;;;5006576;28;20557;-88
2022/01/01 08:29:14;;;;;;;50.20;31.88;;;12.50;99.90;;;;;;5008510;28;20088;-88
2022/01/01 08:31:41;;;;;;;53.20;33.05;;;12.40;99.90;;;;;;5007466;28;20495;-88
2022/01/01 08:34:06;;;;;;;48.42;33.75;;;12.50;99.90;;;;;;5009812;28;20466;-88
2022/01/01 08:36:32;;;;;;;51.22;32.70;;;12.50;99.90;;;;;;5011249;28;20514;-88
2022/01/01 08:38:58;;;;;;;46.58;30.58;;;12.50;99.90;;;;;;5009229;28;20478;-88
2022/01/01 08:41:25;;;;;;;50.13;33.20;;;12.50;99.90;;;;;;4995055;28;20029;-88
2022/01/01 08:43:50;;;;;;;55.33;33.10;;;12.50;99.90;;;;;;5009291;28;20444;-88
2022/01/01 08:46:16;;;;;;;51.38;33.20;;;12.50;99.90;;;;;;4975797;28;20125;-88
2022/01/01 08:48:42;;;;;;;47.58;31.55;;;12.60;99.90;;;;;;5008582;28;20029;-89
2022/01/01 08:51:18;;;;;;;52.35;31.95;;;12.60;99.90;;;;;;4979567;28;20041;-89
2022/01/01 08:53:46;;;;;;;46.33;31.83;;;12.60;99.90;;;;;;4992007;28;20089;-89
2022/01/01 08:56:12;;;;;;;46.63;31.10;;;12.60;99.90;;;;;;5004589;28;20041;-88
2022/01/01 08:58:39;;;;;;;44.13;30.77;;;12.60;99.90;;;;;;5011520;28;20033;-89
2022/01/01 09:01:06;;;;;;;46.38;29.88;;;12.70;99.90;;;;;;5011704;28;20117;-89
2022/01/01 09:03:35;;;;;;;48.92;29.25;;;12.70;99.90;;;;;;4986304;28;20117;-89
2022/01/01 09:06:01;;;;;;;41.95;27.85;;;12.70;99.90;;;;;;4991007;28;20077;-89
2022/01/01 09:08:26;;;;;;;41.20;27.52;;;12.80;99.90;;;;;;4975749;28;20066;-88
2022/01/01 09:10:52;;;;;;;40.00;27.15;;;12.80;99.90;;;;;;5003466;28;20499;-88
2022/01/01 09:13:18;;;;;;;42.08;26.58;;;12.80;99.90;;;;;;4999493;28;20113;-89
2022/01/01 09:15:43;;;;;;;37.55;24.92;;;12.80;99.90;;;;;;5007238;28;20045;-89
2022/01/01 09:18:09;;;;;;;39.92;25.98;;;12.80;99.90;;;;;;4991776;28;20082;-88
2022/01/01 09:20:34;;;;;;;40.80;25.75;;;12.80;99.90;;;;;;5005022;28;20034;-88
2022/01/01 09:23:00;;;;;;;35.95;24.13;;;12.80;99.90;;;;;;5011003;28;20111;-88
2022/01/01 09:25:25;;;;;;;41.63;23.50;;;12.90;99.90;;;;;;5009727;28;20041;-89
2022/01/01 09:27:51;;;;;;;35.22;21.98;;;12.90;99.90;;;;;;5010889;28;20038;-89
2022/01/01 09:30:17;;;;;;;29.08;21.10;;;12.90;99.90;;;;;;4999316;28;20038;-88
2022/01/01 09:32:42;;;;;;;33.83;20.58;;;12.90;99.90;;;;;;4989249;28;20045;-88
2022/01/01 09:35:08;;;;;;;33.95;21.08;;;12.90;99.90;;;;;;4983747;28;20073;-89
2022/01/01 09:37:34;;;;;;;31.90;18.23;;;13.00;99.90;;;;;;4991221;28;20043;-89
2022/01/01 09:40:00;;;;;;;31.77;19.05;;;13.00;99.90;;;;;;4989642;28;20113;-88
2022/01/01 09:42:26;;;;;;;26.38;17.08;;;13.00;99.90;;;;;;4999014;28;20042;-89
2022/01/01 09:44:52;;;;;;;31.05;17.83;;;13.10;99.90;;;;;;5002445;28;20046;-88
2022/01/01 09:47:18;;;;;;;29.83;16.85;;;13.10;99.90;;;;;;5009766;28;20700;-89
2022/01/01 09:49:44;;;;;;;23.38;16.00;;;13.20;99.90;;;;;;5002132;28;20706;-89
2022/01/01 09:52:12;;;;;;;29.73;16.42;;;13.20;99.90;;;;;;4991051;28;20054;-88
2022/01/01 09:54:37;;;;;;;29.25;16.38;;;13.20;99.90;;;;;;4996485;28;20508;-88
2022/01/01 09:57:04;;;;;;;25.85;14.40;;;13.20;99.90;;;;;;4986975;28;20057;-88
2022/01/01 09:59:30;;;;;;;24.58;15.35;;;13.30;99.90;;;;;;4986136;28;20045;-89
2022/01/01 10:01:55;;;;;;;23.85;15.18;;;13.30;99.90;;;;;;4986259;28;20050;-88
2022/01/01 10:04:22;;;;;;;25.55;13.52;;;13.40;99.90;;;;;;4989886;28;20042;-89
2022/01/01 10:07:04;;;;;;;25.70;13.77;;;13.40;99.90;;;;;;4982433;28;20042;-89
2022/01/01 10:09:35;;;;;;;22.77;12.52;;;13.40;99.90;;;;;;4992749;28;20048;-89
2022/01/01 10:12:01;;;;;;;23.88;13.20;;;13.50;99.90;;;;;;4994750;28;20456;-89
2022/01/01 10:14:53;;;;;;;24.20;13.48;;;13.50;99.90;;;;;;5008217;28;21670;-89
2022/01/01 10:17:23;;;;;;;23.55;13.00;;;13.50;99.90;;;;;;4991147;28;20061;-89
2022/01/01 10:19:51;;;;;;;21.70;12.20;;;13.60;99.90;;;;;;5001426;28;20046;-89
2022/01/01 10:22:19;;;;;;;22.08;11.90;;;13.60;99.90;;;;;;4988579;28;20123;-89
2022/01/01 10:27:43;;;;;;;20.42;11.18;;;13.50;99.90;;;;;;5006566;28;20042;-89
2022/01/01 10:30:22;;;;;;;23.95;11.70;;;13.50;99.90;;;;;;4998507;28;20052;-89
2022/01/01 10:33:03;;;;;;;20.90;11.00;;;13.50;99.90;;;;;;4978764;28;20061;-88
2022/01/01 10:35:34;;;;;;;22.88;11.43;;;13.50;99.90;;;;;;4982939;28;20042;-88
2022/01/01 10:38:02;;;;;;;21.35;11.50;;;13.50;99.90;;;;;;4980357;28;20041;-89
2022/01/01 10:40:28;;;;;;;24.50;11.63;;;13.50;99.90;;;;;;4990008;28;20121;-89
2022/01/01 10:42:54;;;;;;;18.85;10.52;;;13.50;99.90;;;;;;4982765;28;20113;-89
2022/01/01 10:45:50;;;;;;;20.67;10.88;;;13.50;99.90;;;;;;4998428;28;20035;-89
2022/01/01 10:48:27;;;;;;;18.90;9.90;;;13.50;99.90;;;;;;4985131;28;20054;-89
2022/01/01 10:50:55;;;;;;;20.13;11.25;;;13.40;99.90;;;;;;4980561;28;20527;-90
2022/01/01 10:53:26;;;;;;;19.67;9.50;;;13.40;99.90;;;;;;4989126;28;20045;-89
2022/01/01 10:55:57;;;;;;;18.50;9.18;;;13.40;99.90;;;;;;4998136;28;20042;-89
2022/01/01 10:58:28;;;;;;;15.05;8.77;;;13.40;99.90;;;;;;5006238;28;20042;-89
2022/01/01 11:01:08;;;;;;;20.63;8.85;;;13.40;99.90;;;;;;4997427;28;20049;-89
2022/01/01 11:03:42;;;;;;;17.73;9.13;;;13.50;99.90;;;;;;5004795;28;20632;-89
2022/01/01 11:06:10;;;;;;;19.15;8.50;;;13.40;99.90;;;;;;5020605;28;20065;-89
2022/01/01 11:08:39;;;;;;;16.77;8.27;;;13.50;99.90;;;;;;5000793;28;20050;-89
2022/01/01 11:11:04;;;;;;;19.35;8.55;;;13.50;99.90;;;;;;4991694;28;20041;-89
2022/01/01 11:13:34;;;;;;;14.13;7.65;;;13.50;99.90;;;;;;5000548;28;20034;-89
2022/01/01 11:16:02;;;;;;;19.27;8.38;;;13.40;99.90;;;;;;4983579;28;20046;-89
2022/01/01 11:18:27;;;;;;;16.45;8.63;;;13.50;99.90;;;;;;5003816;28;20119;-89
2022/01/01 11:20:53;;;;;;;17.23;8.27;;;13.50;99.90;;;;;;4991198;28;20070;-89
2022/01/01 11:23:20;;;;;;;19.05;8.75;;;13.50;99.90;;;;;;4992263;28;20057;-89
2022/01/01 11:25:46;;;;;;;20.73;8.57;;;13.50;99.90;;;;;;4988835;28;20546;-89
2022/01/01 11:28:17;;;;;;;14.93;8.35;;;13.50;99.90;;;;;;4991923;28;20502;-89
2022/01/01 11:30:57;;;;;;;15.52;7.80;;;13.50;99.90;;;;;;5008753;28;20091;-89
2022/01/01 11:33:39;;;;;;;15.80;7.97;;;13.50;99.90;;;;;;5021303;28;20034;-89
2022/01/01 11:36:05;;;;;;;15.93;8.05;;;13.50;99.90;;;;;;4994690;28;20042;-89
2022/01/01 11:38:35;;;;;;;16.52;7.90;;;13.40;99.90;;;;;;4995359;28;20058;-89
2022/01/01 11:41:07;;;;;;;16.83;7.82;;;13.50;99.90;;;;;;4990071;28;20042;-89
2022/01/01 11:43:48;;;;;;;16.90;7.85;;;13.50;99.90;;;;;;4977272;28;20046;-90
2022/01/01 11:46:29;;;;;;;16.35;8.48;;;13.50;99.90;;;;;;4984707;28;20042;-89
2022/01/01 11:49:03;;;;;;;17.38;7.32;;;13.50;99.90;;;;;;4992666;28;20034;-89
2022/01/01 11:51:48;;;;;;;18.38;8.45;;;13.50;99.90;;;;;;4984032;28;20510;-90
2022/01/01 11:54:25;;;;;;;15.05;8.23;;;13.50;99.90;;;;;;4993771;28;20026;-88
2022/01/01 11:56:50;;;;;;;16.90;8.00;;;13.50;99.90;;;;;;5010226;28;20050;-89
2022/01/01 11:59:37;;;;;;;17.73;8.57;;;13.50;99.90;;;;;;4986179;28;20041;-88
2022/01/01 12:02:30;;;;;;;17.48;9.00;;;13.50;99.90;;;;;;5004182;28;20558;-90
2022/01/01 12:05:08;;;;;;;18.63;8.63;;;13.50;99.90;;;;;;5000405;28;20393;-89
2022/01/01 12:08:03;;;;;;;17.25;8.02;;;13.50;99.90;;;;;;5008539;28;20065;-90
2022/01/01 12:10:32;;;;;;;16.40;8.38;;;13.60;99.90;;;;;;4988769;28;20129;-89
2022/01/01 12:13:09;;;;;;;17.35;8.80;;;13.60;99.90;;;;;;5009154;28;20129;-89
2022/01/01 12:15:36;;;;;;;18.17;8.60;;;13.60;99.90;;;;;;5000637;28;20046;-88
2022/01/01 12:18:09;;;;;;;16.75;8.13;;;13.60;99.90;;;;;;4976455;28;20139;-89
2022/01/01 12:20:40;;;;;;;15.65;8.23;;;13.70;99.90;;;;;;4979781;28;20042;-88
2022/01/01 12:23:12;;;;;;;16.98;7.95;;;13.70;99.90;;;;;;4991743;28;20514;-88
2022/01/01 12:25:39;;;;;;;18.52;8.63;;;13.70;99.90;;;;;;4976162;28;20162;-88
2022/01/01 12:28:10;;;;;;;16.42;8.52;;;13.70;99.90;;;;;;5001072;28;20489;-88
2022/01/01 12:30:40;;;;;;;17.67;8.35;;;13.70;99.90;;;;;;5007265;28;20042;-89
2022/01/01 12:33:07;;;;;;;16.08;8.10;;;13.60;99.90;;;;;;5009165;28;20542;-88
2022/01/01 12:35:53;;;;;;;16.98;8.50;;;13.60;99.90;;;;;;5006313;28;20060;-89